createdAt,value
2023-05-29T00:00:24.772Z,101160.56
2023-05-29T00:02:51.847Z,101161.44
2023-05-29T00:05:18.623Z,101153.69
2023-05-29T00:07:45.023Z,101160.53
2023-05-29T00:10:11.636Z,101155.22
2023-05-29T00:12:38.429Z,101155.84
2023-05-29T00:15:05.237Z,101158.03
2023-05-29T00:17:34.653Z,101156.06
2023-05-29T00:20:02.581Z,101152.75
2023-05-29T00:22:29.041Z,101160.63
2023-05-29T00:24:55.530Z,101157.78
2023-05-29T00:27:21.943Z,101156.75
2023-05-29T00:29:48.312Z,101162.81
2023-05-29T00:32:14.700Z,101162.78
2023-05-29T00:34:41.160Z,101159.72
2023-05-29T00:37:07.699Z,101168.59
2023-05-29T00:39:34.123Z,101166.97
2023-05-29T00:42:00.654Z,101167.72
2023-05-29T00:44:27.016Z,101170.31
2023-05-29T00:46:57.466Z,101163.31
2023-05-29T00:49:23.879Z,101164.22
2023-05-29T00:51:51.108Z,101157.19
2023-05-29T00:54:18.778Z,101160.91
2023-05-29T00:56:45.242Z,101167.97
2023-05-29T00:59:12.058Z,101160.81
2023-05-29T01:01:38.794Z,101162.63
2023-05-29T01:04:07.580Z,101163.50
2023-05-29T01:06:34.229Z,101164.88
2023-05-29T01:09:00.766Z,101162.47
2023-05-29T01:11:45.645Z,101154.72
2023-05-29T01:14:15.027Z,101157.66
2023-05-29T01:16:45.862Z,101154.13
2023-05-29T01:19:23.996Z,101154.22
2023-05-29T01:22:09.161Z,101156.56
2023-05-29T01:24:36.110Z,101161.00
2023-05-29T01:27:04.859Z,101159.16
2023-05-29T01:29:32.312Z,101156.53
2023-05-29T01:31:59.064Z,101160.88
2023-05-29T01:34:25.527Z,101160.53
2023-05-29T01:36:51.984Z,101168.38
2023-05-29T01:39:19.957Z,101171.41
2023-05-29T01:41:46.339Z,101168.66
2023-05-29T01:44:13.601Z,101169.91
2023-05-29T01:46:40.834Z,101170.16
2023-05-29T01:49:07.456Z,101165.00
2023-05-29T01:51:33.826Z,101166.50
2023-05-29T01:54:01.700Z,101175.84
2023-05-29T01:56:28.438Z,101172.63
2023-05-29T01:58:57.864Z,101167.56
2023-05-29T02:01:24.379Z,101168.44
2023-05-29T02:03:52.027Z,101170.28
2023-05-29T02:06:18.529Z,101165.84
2023-05-29T02:08:45.025Z,101168.44
2023-05-29T02:11:11.373Z,101163.97
2023-05-29T02:13:38.076Z,101169.03
2023-05-29T02:16:04.604Z,101158.34
2023-05-29T02:18:32.078Z,101169.47
2023-05-29T02:20:58.677Z,101167.63
2023-05-29T02:23:25.477Z,101159.69
2023-05-29T02:25:52.191Z,101160.72
2023-05-29T02:28:18.537Z,101160.75
2023-05-29T02:30:44.935Z,101167.69
2023-05-29T02:33:11.299Z,101161.63
2023-05-29T02:35:37.701Z,101165.25
2023-05-29T02:38:04.235Z,101169.69
2023-05-29T02:40:30.579Z,101166.06
2023-05-29T02:42:56.970Z,101170.81
2023-05-29T02:45:23.425Z,101169.03
2023-05-29T02:47:49.811Z,101176.16
2023-05-29T02:50:16.531Z,101166.63
2023-05-29T02:52:42.942Z,101160.63
2023-05-29T02:55:09.458Z,101160.63
2023-05-29T02:57:36.403Z,101155.53
2023-05-29T03:00:06.317Z,101161.94
2023-05-29T03:02:32.860Z,101162.72
2023-05-29T03:04:59.523Z,101159.19
2023-05-29T03:07:25.923Z,101158.66
2023-05-29T03:09:53.278Z,101163.63
2023-05-29T03:12:19.928Z,101160.81
2023-05-29T03:14:46.517Z,101153.91
2023-05-29T03:17:13.437Z,101155.69
2023-05-29T03:19:40.018Z,101153.78
2023-05-29T03:22:06.566Z,101147.44
2023-05-29T03:24:35.924Z,101147.38
2023-05-29T03:27:04.345Z,101145.59
2023-05-29T03:29:31.364Z,101153.25
2023-05-29T03:31:57.740Z,101152.50
2023-05-29T03:34:24.127Z,101152.91
2023-05-29T03:36:50.741Z,101157.91
2023-05-29T03:39:17.133Z,101153.44
2023-05-29T03:41:43.504Z,101151.13
2023-05-29T03:44:10.881Z,101153.75
2023-05-29T03:46:37.288Z,101155.50
2023-05-29T03:49:03.693Z,101162.69
2023-05-29T03:51:30.067Z,101160.63
2023-05-29T03:53:56.428Z,101164.00
2023-05-29T03:56:22.821Z,101162.09
2023-05-29T03:58:49.282Z,101159.06
2023-05-29T04:01:15.683Z,101165.16
2023-05-29T04:03:42.237Z,101166.97
2023-05-29T04:06:09.258Z,101170.38
2023-05-29T04:08:35.660Z,101167.56
2023-05-29T04:11:02.404Z,101162.19
2023-05-29T04:13:28.842Z,101163.78
2023-05-29T04:15:55.660Z,101164.44
2023-05-29T04:18:22.215Z,101169.25
2023-05-29T04:20:48.851Z,101169.00
2023-05-29T04:23:15.496Z,101164.22
2023-05-29T04:25:41.933Z,101166.09
2023-05-29T04:28:08.380Z,101172.72
2023-05-29T04:30:34.875Z,101174.34
2023-05-29T04:33:01.361Z,101180.00
2023-05-29T04:35:29.432Z,101178.63
2023-05-29T04:37:57.399Z,101167.25
2023-05-29T04:40:23.792Z,101181.97
2023-05-29T04:42:50.860Z,101168.31
2023-05-29T04:45:17.363Z,101171.00
2023-05-29T04:47:46.872Z,101167.03
2023-05-29T04:50:13.703Z,101173.84
2023-05-29T04:52:40.174Z,101170.50
2023-05-29T04:55:07.209Z,101171.03
2023-05-29T04:57:33.845Z,101162.66
2023-05-29T05:00:00.312Z,101165.91
2023-05-29T05:02:26.875Z,101174.25
2023-05-29T05:04:53.314Z,101175.00
2023-05-29T05:07:19.687Z,101167.25
2023-05-29T05:09:46.051Z,101166.66
2023-05-29T05:12:12.565Z,101172.81
2023-05-29T05:14:39.028Z,101169.72
2023-05-29T05:17:05.835Z,101183.38
2023-05-29T05:19:32.286Z,101178.69
2023-05-29T05:21:58.645Z,101180.19
2023-05-29T05:24:25.072Z,101175.28
2023-05-29T05:26:51.465Z,101178.78
2023-05-29T05:29:17.907Z,101184.16
2023-05-29T05:31:44.303Z,101184.59
2023-05-29T05:34:10.871Z,101183.09
2023-05-29T05:36:37.817Z,101182.09
2023-05-29T05:39:04.265Z,101178.59
2023-05-29T05:41:30.741Z,101186.59
2023-05-29T05:43:57.115Z,101190.16
2023-05-29T05:46:25.205Z,101195.44
2023-05-29T05:48:54.226Z,101190.69
2023-05-29T05:51:20.749Z,101192.94
2023-05-29T05:53:47.522Z,101184.88
2023-05-29T05:56:14.053Z,101186.31
2023-05-29T05:58:40.823Z,101185.97
2023-05-29T06:01:08.609Z,101183.66
2023-05-29T06:03:35.592Z,101197.09
2023-05-29T06:06:02.076Z,101193.25
2023-05-29T06:08:28.446Z,101200.47
2023-05-29T06:10:55.097Z,101196.84
2023-05-29T06:13:21.748Z,101200.28
2023-05-29T06:15:48.198Z,101196.34
2023-05-29T06:18:14.754Z,101200.06
2023-05-29T06:20:42.230Z,101207.38
2023-05-29T06:23:08.722Z,101202.72
2023-05-29T06:25:35.166Z,101207.97
2023-05-29T06:28:02.150Z,101211.75
2023-05-29T06:30:28.874Z,101216.28
2023-05-29T06:32:55.455Z,101206.06
2023-05-29T06:35:21.925Z,101214.06
2023-05-29T06:37:48.644Z,101209.16
2023-05-29T06:40:16.683Z,101215.75
2023-05-29T06:42:45.519Z,101217.63
2023-05-29T06:45:14.433Z,101219.34
2023-05-29T06:47:41.634Z,101219.63
2023-05-29T06:50:08.725Z,101225.38
2023-05-29T06:52:35.113Z,101218.94
2023-05-29T06:55:02.445Z,101214.31
2023-05-29T06:57:28.988Z,101210.66
2023-05-29T06:59:55.351Z,101215.84
2023-05-29T07:02:21.971Z,101216.66
2023-05-29T07:04:48.430Z,101217.84
2023-05-29T07:07:14.821Z,101225.47
2023-05-29T07:09:41.217Z,101217.69
2023-05-29T07:12:07.596Z,101222.53
2023-05-29T07:14:34.915Z,101223.91
2023-05-29T07:17:01.530Z,101215.66
2023-05-29T07:19:28.839Z,101216.78
2023-05-29T07:21:55.252Z,101217.50
2023-05-29T07:24:21.673Z,101212.25
2023-05-29T07:26:48.115Z,101217.06
2023-05-29T07:29:15.604Z,101229.44
2023-05-29T07:31:42.048Z,101230.41
2023-05-29T07:34:08.434Z,101232.19
2023-05-29T07:36:34.878Z,101235.03
2023-05-29T07:39:01.312Z,101223.84
2023-05-29T07:41:27.866Z,101221.47
2023-05-29T07:43:54.991Z,101222.25
2023-05-29T07:46:21.602Z,101223.31
2023-05-29T07:48:48.147Z,101230.44
2023-05-29T07:51:15.099Z,101228.38
2023-05-29T07:53:41.509Z,101228.38
2023-05-29T07:56:08.027Z,101236.25
2023-05-29T07:58:34.462Z,101234.53
2023-05-29T08:01:00.899Z,101228.38
2023-05-29T08:03:28.224Z,101230.75
2023-05-29T08:05:54.754Z,101220.25
2023-05-29T08:08:21.189Z,101222.75
2023-05-29T08:10:47.656Z,101222.66
2023-05-29T08:13:14.028Z,101227.72
2023-05-29T08:15:40.426Z,101229.78
2023-05-29T08:18:07.943Z,101226.97
2023-05-29T08:20:36.138Z,101231.91
2023-05-29T08:23:02.673Z,101232.66
2023-05-29T08:25:29.046Z,101234.34
2023-05-29T08:27:55.596Z,101239.59
2023-05-29T08:30:23.010Z,101240.00
2023-05-29T08:32:51.334Z,101243.13
2023-05-29T08:35:17.744Z,101247.59
2023-05-29T08:37:44.239Z,101245.00
2023-05-29T08:40:11.781Z,101247.03
2023-05-29T08:42:40.990Z,101251.28
2023-05-29T08:45:08.453Z,101250.53
2023-05-29T08:47:35.258Z,101247.94
2023-05-29T08:50:02.402Z,101246.34
2023-05-29T08:52:28.905Z,101243.56
2023-05-29T08:54:55.460Z,101249.00
2023-05-29T08:57:21.863Z,101240.91
2023-05-29T08:59:50.413Z,101254.06
2023-05-29T09:02:16.880Z,101257.97
2023-05-29T09:04:45.986Z,101245.38
2023-05-29T09:07:12.878Z,101249.81
2023-05-29T09:09:39.255Z,101250.94
2023-05-29T09:12:05.770Z,101248.41
2023-05-29T09:14:35.904Z,101252.06
2023-05-29T09:17:03.000Z,101245.63
2023-05-29T09:19:29.350Z,101250.56
2023-05-29T09:22:02.813Z,101237.50
2023-05-29T09:24:29.444Z,101244.75
2023-05-29T09:26:56.839Z,101238.53
2023-05-29T09:29:23.445Z,101250.81
2023-05-29T09:31:50.282Z,101254.88
2023-05-29T09:34:17.012Z,101257.66
2023-05-29T09:36:43.422Z,101253.69
2023-05-29T09:39:17.684Z,101252.84
2023-05-29T09:41:45.197Z,101265.03
2023-05-29T09:44:15.026Z,101260.94
2023-05-29T09:46:42.492Z,101260.28
2023-05-29T09:49:15.197Z,101259.81
2023-05-29T09:51:43.575Z,101258.91
2023-05-29T09:54:16.893Z,101251.03
2023-05-29T09:56:43.739Z,101260.84
2023-05-29T09:59:13.364Z,101259.97
2023-05-29T10:01:40.793Z,101266.00
2023-05-29T10:04:07.216Z,101261.19
2023-05-29T10:06:34.028Z,101252.50
2023-05-29T10:09:01.641Z,101263.47
2023-05-29T10:11:28.745Z,101264.78
2023-05-29T10:13:55.281Z,101261.41
2023-05-29T10:16:22.773Z,101256.13
2023-05-29T10:18:51.396Z,101256.88
2023-05-29T10:21:18.043Z,101258.00
2023-05-29T10:23:46.823Z,101253.31
2023-05-29T10:26:15.340Z,101264.94
2023-05-29T10:28:42.645Z,101263.44
2023-05-29T10:31:15.346Z,101253.78
2023-05-29T10:33:51.423Z,101265.13
2023-05-29T10:36:19.669Z,101258.63
2023-05-29T10:38:46.296Z,101257.19
2023-05-29T10:41:25.153Z,101259.13
2023-05-29T10:43:51.774Z,101251.22
2023-05-29T10:46:18.196Z,101250.50
2023-05-29T10:48:44.745Z,101250.09
2023-05-29T10:51:25.565Z,101251.34
2023-05-29T10:53:52.157Z,101240.81
2023-05-29T10:56:23.669Z,101240.19
2023-05-29T10:58:58.541Z,101240.84
2023-05-29T11:01:26.122Z,101247.53
2023-05-29T11:03:55.799Z,101244.53
2023-05-29T11:06:24.794Z,101238.84
2023-05-29T11:08:55.152Z,101240.47
2023-05-29T11:11:36.598Z,101228.81
2023-05-29T11:14:06.751Z,101237.53
2023-05-29T11:16:33.562Z,101235.34
2023-05-29T11:19:01.232Z,101235.56
2023-05-29T11:21:46.845Z,101228.56
2023-05-29T11:24:28.947Z,101228.25
2023-05-29T11:26:55.930Z,101236.47
2023-05-29T11:29:23.230Z,101223.22
2023-05-29T11:31:49.648Z,101232.13
2023-05-29T11:34:16.129Z,101234.66
2023-05-29T11:36:44.453Z,101224.50
2023-05-29T11:39:11.027Z,101214.44
2023-05-29T11:41:37.405Z,101226.28
2023-05-29T11:44:06.791Z,101226.16
2023-05-29T11:46:33.697Z,101228.63
2023-05-29T11:49:00.547Z,101233.44
2023-05-29T11:51:27.040Z,101230.19
2023-05-29T11:53:58.934Z,101227.28
2023-05-29T11:56:26.632Z,101231.31
2023-05-29T11:58:56.432Z,101231.94
2023-05-29T12:01:24.644Z,101230.56
2023-05-29T12:03:51.641Z,101223.06
2023-05-29T12:06:18.071Z,101231.81
2023-05-29T12:08:45.182Z,101219.91
2023-05-29T12:11:11.606Z,101226.88
2023-05-29T12:13:38.180Z,101225.59
2023-05-29T12:16:05.513Z,101222.19
2023-05-29T12:18:31.925Z,101227.31
2023-05-29T12:21:01.929Z,101216.59
2023-05-29T12:23:29.004Z,101219.91
2023-05-29T12:25:55.629Z,101210.19
2023-05-29T12:28:22.613Z,101205.28
2023-05-29T12:30:52.473Z,101218.69
2023-05-29T12:33:31.949Z,101224.25
2023-05-29T12:36:08.634Z,101220.91
2023-05-29T12:38:37.477Z,101217.44
2023-05-29T12:41:04.035Z,101220.34
2023-05-29T12:43:30.669Z,101219.97
2023-05-29T12:46:00.354Z,101213.22
2023-05-29T12:48:27.631Z,101214.16
2023-05-29T12:50:54.047Z,101219.78
2023-05-29T12:53:20.647Z,101217.25
2023-05-29T12:55:47.995Z,101214.16
2023-05-29T12:58:14.957Z,101213.72
2023-05-29T13:00:42.037Z,101218.25
2023-05-29T13:03:08.863Z,101213.63
2023-05-29T13:05:35.982Z,101222.78
2023-05-29T13:08:02.553Z,101214.47
2023-05-29T13:10:29.083Z,101220.84
2023-05-29T13:12:56.160Z,101214.84
2023-05-29T13:15:23.525Z,101215.81
2023-05-29T13:17:50.081Z,101217.09
2023-05-29T13:20:16.777Z,101205.00
2023-05-29T13:22:43.744Z,101212.56
2023-05-29T13:25:11.334Z,101217.31
2023-05-29T13:27:38.546Z,101212.72
2023-05-29T13:30:05.945Z,101209.69
2023-05-29T13:32:32.398Z,101218.78
2023-05-29T13:34:58.872Z,101217.31
2023-05-29T13:37:25.446Z,101213.44
2023-05-29T13:39:51.905Z,101216.84
2023-05-29T13:42:18.803Z,101212.88
2023-05-29T13:44:45.210Z,101210.28
2023-05-29T13:47:11.573Z,101211.00
2023-05-29T13:49:38.018Z,101212.16
2023-05-29T13:52:04.738Z,101214.88
2023-05-29T13:54:32.557Z,101221.41
2023-05-29T13:56:59.099Z,101218.91
2023-05-29T13:59:25.732Z,101223.63
2023-05-29T14:01:52.276Z,101215.88
2023-05-29T14:04:18.775Z,101225.91
2023-05-29T14:06:45.652Z,101228.19
2023-05-29T14:09:12.200Z,101233.69
2023-05-29T14:11:38.685Z,101227.41
2023-05-29T14:14:05.100Z,101226.22
2023-05-29T14:16:31.703Z,101221.44
2023-05-29T14:18:58.976Z,101224.41
2023-05-29T14:21:25.463Z,101230.03
2023-05-29T14:23:51.836Z,101227.19
2023-05-29T14:26:18.341Z,101222.34
2023-05-29T14:28:44.921Z,101219.97
2023-05-29T14:31:11.339Z,101225.47
2023-05-29T14:33:37.885Z,101224.13
2023-05-29T14:36:04.390Z,101222.84
2023-05-29T14:38:30.762Z,101222.78
2023-05-29T14:41:07.985Z,101222.69
2023-05-29T14:43:35.553Z,101229.22
2023-05-29T14:46:01.991Z,101226.63
2023-05-29T14:48:28.405Z,101224.41
2023-05-29T14:51:04.577Z,101223.16
2023-05-29T14:53:33.762Z,101218.34
2023-05-29T14:56:00.204Z,101215.88
2023-05-29T14:58:26.649Z,101224.16
2023-05-29T15:00:53.098Z,101231.63
2023-05-29T15:03:19.621Z,101220.34
2023-05-29T15:05:46.856Z,101221.66
2023-05-29T15:08:13.318Z,101219.16
2023-05-29T15:10:39.735Z,101209.03
2023-05-29T15:13:08.293Z,101214.75
2023-05-29T15:15:47.356Z,101206.59
2023-05-29T15:18:15.053Z,101202.19
2023-05-29T15:20:41.925Z,101207.78
2023-05-29T15:23:08.441Z,101204.38
2023-05-29T15:25:34.822Z,101208.81
2023-05-29T15:28:01.652Z,101204.75
2023-05-29T15:30:28.038Z,101200.53
2023-05-29T15:32:54.449Z,101199.44
2023-05-29T15:35:21.034Z,101205.22
2023-05-29T15:37:47.453Z,101203.38
2023-05-29T15:40:13.879Z,101205.47
2023-05-29T15:42:41.744Z,101197.56
2023-05-29T15:45:09.034Z,101195.78
2023-05-29T15:47:35.590Z,101201.81
2023-05-29T15:50:02.018Z,101204.22
2023-05-29T15:52:29.857Z,101205.19
2023-05-29T15:54:59.838Z,101205.84
2023-05-29T15:57:27.128Z,101197.19
2023-05-29T15:59:53.524Z,101209.16
2023-05-29T16:02:19.917Z,101204.72
2023-05-29T16:04:55.464Z,101204.34
2023-05-29T16:07:25.510Z,101200.81
2023-05-29T16:09:52.307Z,101208.88
2023-05-29T16:12:18.785Z,101207.19
2023-05-29T16:14:45.283Z,101202.22
2023-05-29T16:17:11.758Z,101199.38
2023-05-29T16:19:38.210Z,101197.94
2023-05-29T16:22:04.680Z,101199.16
2023-05-29T16:24:31.155Z,101201.19
2023-05-29T16:26:57.600Z,101191.91
2023-05-29T16:29:26.527Z,101192.91
2023-05-29T16:31:52.937Z,101197.88
2023-05-29T16:34:19.351Z,101200.59
2023-05-29T16:36:45.832Z,101201.72
2023-05-29T16:39:12.700Z,101200.69
2023-05-29T16:41:39.454Z,101203.13
2023-05-29T16:44:05.975Z,101202.75
2023-05-29T16:46:34.335Z,101203.75
2023-05-29T16:49:01.103Z,101214.41
2023-05-29T16:51:27.498Z,101210.75
2023-05-29T16:53:54.001Z,101209.09
2023-05-29T16:56:20.392Z,101206.97
2023-05-29T16:58:46.921Z,101209.00
2023-05-29T17:01:13.473Z,101212.44
2023-05-29T17:03:40.232Z,101210.50
2023-05-29T17:06:06.777Z,101204.44
2023-05-29T17:08:33.267Z,101210.97
2023-05-29T17:11:01.252Z,101205.47
2023-05-29T17:13:28.990Z,101209.06
2023-05-29T17:15:55.913Z,101210.69
2023-05-29T17:18:22.558Z,101204.31
2023-05-29T17:20:49.125Z,101200.44
2023-05-29T17:23:15.615Z,101204.53
2023-05-29T17:25:42.088Z,101209.19
2023-05-29T17:28:10.687Z,101208.50
2023-05-29T17:30:37.812Z,101216.88
2023-05-29T17:33:04.699Z,101213.41
2023-05-29T17:35:31.757Z,101218.81
2023-05-29T17:37:58.301Z,101214.34
2023-05-29T17:40:25.717Z,101217.34
2023-05-29T17:42:54.291Z,101224.03
2023-05-29T17:45:22.405Z,101224.69
2023-05-29T17:47:49.912Z,101226.91
2023-05-29T17:50:16.650Z,101223.31
2023-05-29T17:52:43.364Z,101230.06
2023-05-29T17:55:10.053Z,101220.13
2023-05-29T17:57:36.878Z,101231.41
2023-05-29T18:00:04.962Z,101227.53
2023-05-29T18:02:31.501Z,101227.00
2023-05-29T18:04:57.987Z,101222.03
2023-05-29T18:07:24.471Z,101223.75
2023-05-29T18:09:50.870Z,101220.41
2023-05-29T18:12:17.282Z,101230.41
2023-05-29T18:14:43.691Z,101228.06
2023-05-29T18:17:10.251Z,101235.59
2023-05-29T18:19:39.538Z,101234.53
2023-05-29T18:22:07.311Z,101236.94
2023-05-29T18:24:33.693Z,101230.16
2023-05-29T18:27:00.108Z,101234.31
2023-05-29T18:29:26.642Z,101230.91
2023-05-29T18:31:53.073Z,101230.53
2023-05-29T18:34:20.138Z,101227.78
2023-05-29T18:36:46.606Z,101230.94
2023-05-29T18:39:13.060Z,101232.47
2023-05-29T18:41:39.472Z,101234.19
2023-05-29T18:44:05.928Z,101234.03
2023-05-29T18:46:32.641Z,101235.69
2023-05-29T18:48:59.103Z,101235.69
2023-05-29T18:51:26.029Z,101244.22
2023-05-29T18:53:52.420Z,101249.50
2023-05-29T18:56:20.082Z,101241.00
2023-05-29T18:58:47.513Z,101247.69
2023-05-29T19:01:30.131Z,101233.03
2023-05-29T19:03:58.222Z,101236.03
2023-05-29T19:06:24.776Z,101238.34
2023-05-29T19:08:51.174Z,101233.63
2023-05-29T19:11:18.310Z,101236.44
2023-05-29T19:13:46.875Z,101244.63
2023-05-29T19:16:19.380Z,101243.31
2023-05-29T19:18:45.954Z,101235.50
2023-05-29T19:21:12.739Z,101240.88
2023-05-29T19:23:39.235Z,101247.16
2023-05-29T19:26:06.288Z,101248.22
2023-05-29T19:28:32.675Z,101244.84
2023-05-29T19:30:59.331Z,101250.63
2023-05-29T19:33:25.906Z,101252.41
2023-05-29T19:35:52.788Z,101251.84
2023-05-29T19:38:19.270Z,101254.81
2023-05-29T19:40:46.963Z,101256.38
2023-05-29T19:43:13.916Z,101263.84
2023-05-29T19:45:40.342Z,101261.53
2023-05-29T19:48:07.264Z,101259.69
2023-05-29T19:50:33.788Z,101260.78
2023-05-29T19:53:00.364Z,101265.44
2023-05-29T19:55:27.344Z,101263.72
2023-05-29T19:57:53.935Z,101264.66
2023-05-29T20:00:20.320Z,101267.91
2023-05-29T20:02:46.937Z,101264.19
2023-05-29T20:05:13.600Z,101268.84
2023-05-29T20:07:40.016Z,101267.97
2023-05-29T20:10:07.418Z,101264.19
2023-05-29T20:12:33.930Z,101263.31
2023-05-29T20:15:01.361Z,101262.66
2023-05-29T20:17:27.877Z,101274.75
2023-05-29T20:19:56.745Z,101274.88
2023-05-29T20:22:24.227Z,101280.78
2023-05-29T20:24:50.704Z,101274.88
2023-05-29T20:27:17.288Z,101276.66
2023-05-29T20:29:43.836Z,101278.50
2023-05-29T20:32:11.201Z,101277.66
2023-05-29T20:34:37.892Z,101277.16
2023-05-29T20:37:04.616Z,101271.81
2023-05-29T20:39:35.247Z,101272.88
2023-05-29T20:42:03.604Z,101282.06
2023-05-29T20:44:32.717Z,101280.47
2023-05-29T20:46:59.659Z,101280.53
2023-05-29T20:49:26.171Z,101276.47
2023-05-29T20:51:52.872Z,101276.47
2023-05-29T20:54:19.496Z,101274.88
2023-05-29T20:56:47.118Z,101275.53
2023-05-29T20:59:13.498Z,101275.97
2023-05-29T21:01:41.377Z,101276.53
2023-05-29T21:04:07.957Z,101282.09
2023-05-29T21:06:34.366Z,101285.28
2023-05-29T21:09:00.794Z,101279.94
2023-05-29T21:11:27.972Z,101277.53
2023-05-29T21:13:54.742Z,101274.19
2023-05-29T21:16:21.489Z,101278.34
2023-05-29T21:18:47.976Z,101277.94
2023-05-29T21:21:16.142Z,101270.47
2023-05-29T21:23:44.460Z,101272.25
2023-05-29T21:26:10.954Z,101274.84
2023-05-29T21:28:39.350Z,101268.09
2023-05-29T21:31:08.894Z,101273.63
2023-05-29T21:33:35.972Z,101274.75
2023-05-29T21:36:02.465Z,101268.59
2023-05-29T21:38:28.883Z,101277.88
2023-05-29T21:40:55.906Z,101272.44
2023-05-29T21:43:22.685Z,101280.59
2023-05-29T21:45:51.570Z,101271.44
2023-05-29T21:48:18.129Z,101268.09
2023-05-29T21:50:45.907Z,101273.59
2023-05-29T21:53:12.402Z,101271.00
2023-05-29T21:55:39.219Z,101268.69
2023-05-29T21:58:05.896Z,101267.16
2023-05-29T22:00:32.391Z,101272.22
2023-05-29T22:02:59.288Z,101273.69
2023-05-29T22:05:26.500Z,101263.22
2023-05-29T22:07:54.192Z,101265.06
2023-05-29T22:10:21.081Z,101266.97
2023-05-29T22:12:49.900Z,101271.16
2023-05-29T22:15:18.564Z,101270.59
2023-05-29T22:17:46.869Z,101266.34
2023-05-29T22:20:15.314Z,101271.22
2023-05-29T22:22:44.091Z,101267.72
2023-05-29T22:25:14.064Z,101273.22
2023-05-29T22:27:40.843Z,101267.06
2023-05-29T22:30:08.743Z,101270.41
2023-05-29T22:32:35.434Z,101269.44
2023-05-29T22:35:03.370Z,101278.56
2023-05-29T22:37:29.778Z,101275.94
2023-05-29T22:39:56.176Z,101280.31
2023-05-29T22:42:22.572Z,101277.69
2023-05-29T22:44:49.264Z,101279.72
2023-05-29T22:47:16.735Z,101282.47
2023-05-29T22:49:43.160Z,101278.16
2023-05-29T22:52:10.636Z,101280.13
2023-05-29T22:54:37.726Z,101284.53
2023-05-29T22:57:04.644Z,101279.19
2023-05-29T22:59:31.051Z,101282.72
2023-05-29T23:01:57.871Z,101282.91
2023-05-29T23:04:24.370Z,101283.56
2023-05-29T23:06:50.867Z,101278.34
2023-05-29T23:09:17.316Z,101287.50
2023-05-29T23:11:43.682Z,101273.53
2023-05-29T23:14:10.367Z,101270.72
2023-05-29T23:16:37.642Z,101268.97
2023-05-29T23:19:04.430Z,101270.88
2023-05-29T23:21:31.629Z,101274.19
2023-05-29T23:23:58.907Z,101277.00
2023-05-29T23:26:25.666Z,101279.59
2023-05-29T23:28:52.452Z,101279.50
2023-05-29T23:31:18.893Z,101286.69
2023-05-29T23:33:45.599Z,101280.66
2023-05-29T23:36:12.139Z,101285.78
2023-05-29T23:38:38.554Z,101284.06
2023-05-29T23:41:04.961Z,101290.13
2023-05-29T23:43:32.350Z,101277.16
2023-05-29T23:45:58.904Z,101290.22
2023-05-29T23:48:25.309Z,101298.00
2023-05-29T23:50:52.046Z,101291.72
2023-05-29T23:53:18.427Z,101296.13
2023-05-29T23:55:44.831Z,101299.53
2023-05-29T23:58:11.675Z,101299.69
